Terminal Aerodrome Forecast
Issued by NWS

Home | Current Version | Previous Version | Text Only | Print | Product List | Glossary Off
Versions: 1 2 3 4 5 6 7 8 9 10 11 12 13 14 15 16 17 18

000
FTUS43 KICT 201128
TAFCNU
TAF
KCNU 201128Z 2012/2112 17013KT P6SM BKN250 WS020/19048KT
     FM201500 19012KT P6SM SCT250
     FM201800 19022G26KT P6SM BKN035
     FM202300 18013KT P6SM BKN040=

USA.gov is the U.S. government's official web portal to all federal, state and local government web resources and services.